createdAt,value
2018-05-31T00:02:04.164Z,18.87
2018-05-31T00:04:31.263Z,18.89
2018-05-31T00:06:58.320Z,18.87
2018-05-31T00:09:25.813Z,18.85
2018-05-31T00:11:52.827Z,18.79
2018-05-31T00:14:20.102Z,18.78
2018-05-31T00:16:47.149Z,18.77
2018-05-31T00:19:14.224Z,18.73
2018-05-31T00:21:41.373Z,18.69
2018-05-31T00:24:08.532Z,18.59
2018-05-31T00:26:35.788Z,18.56
2018-05-31T00:29:02.812Z,18.48
2018-05-31T00:31:30.358Z,18.45
2018-05-31T00:33:57.722Z,18.46
2018-05-31T00:36:24.741Z,18.44
2018-05-31T00:38:51.861Z,18.37
2018-05-31T00:41:19.092Z,18.37
2018-05-31T00:43:46.238Z,18.31
2018-05-31T00:46:13.228Z,18.27
2018-05-31T00:48:40.375Z,18.24
2018-05-31T00:51:07.418Z,18.19
2018-05-31T00:53:34.440Z,18.14
2018-05-31T00:56:07.379Z,18.12
2018-05-31T00:58:34.408Z,18.11
2018-05-31T01:01:01.624Z,18.11
2018-05-31T01:03:28.620Z,18.14
2018-05-31T01:05:55.639Z,18.12
2018-05-31T01:08:23.027Z,18.10
2018-05-31T01:10:50.732Z,18.03
2018-05-31T01:13:17.842Z,17.87
2018-05-31T01:15:44.882Z,17.76
2018-05-31T01:18:12.568Z,17.72
2018-05-31T01:20:39.603Z,17.63
2018-05-31T01:23:06.645Z,17.46
2018-05-31T01:25:33.657Z,17.49
2018-05-31T01:28:00.659Z,17.52
2018-05-31T01:30:27.652Z,17.51
2018-05-31T01:32:54.672Z,17.56
2018-05-31T01:35:22.237Z,17.56
2018-05-31T01:37:49.237Z,17.53
2018-05-31T01:40:17.039Z,17.51
2018-05-31T01:42:44.087Z,17.47
2018-05-31T01:45:11.110Z,17.45
2018-05-31T01:47:38.117Z,17.40
2018-05-31T01:50:05.140Z,17.35
2018-05-31T01:52:32.325Z,17.31
2018-05-31T01:54:59.393Z,17.28
2018-05-31T01:57:26.417Z,17.29
2018-05-31T01:59:53.464Z,17.20
2018-05-31T02:02:20.503Z,17.18
2018-05-31T02:04:47.638Z,17.17
2018-05-31T02:07:14.788Z,17.11
2018-05-31T02:09:41.812Z,17.06
2018-05-31T02:12:08.833Z,17.06
2018-05-31T02:14:35.850Z,17.05
2018-05-31T02:17:02.987Z,17.09
2018-05-31T02:19:30.223Z,17.06
2018-05-31T02:21:57.240Z,17.03
2018-05-31T02:24:24.264Z,16.97
2018-05-31T02:26:51.255Z,16.88
2018-05-31T02:29:18.296Z,16.83
2018-05-31T02:31:45.319Z,16.74
2018-05-31T02:34:12.364Z,16.66
2018-05-31T02:36:39.358Z,16.62
2018-05-31T02:39:06.483Z,16.58
2018-05-31T02:41:33.690Z,16.52
2018-05-31T02:44:00.939Z,16.48
2018-05-31T02:46:27.939Z,16.44
2018-05-31T02:48:54.940Z,16.42
2018-05-31T02:51:21.947Z,16.37
2018-05-31T02:53:48.944Z,16.31
2018-05-31T02:56:16.149Z,16.30
2018-05-31T02:58:43.229Z,16.30
2018-05-31T03:01:10.254Z,16.28
2018-05-31T03:03:37.242Z,16.22
2018-05-31T03:06:04.268Z,16.17
2018-05-31T03:08:31.332Z,16.13
2018-05-31T03:10:58.363Z,16.11
2018-05-31T03:13:25.395Z,16.08
2018-05-31T03:15:52.568Z,16.07
2018-05-31T03:18:19.583Z,16.03
2018-05-31T03:20:46.607Z,16.01
2018-05-31T03:23:13.650Z,15.96
2018-05-31T03:25:40.695Z,15.96
2018-05-31T03:28:07.684Z,15.94
2018-05-31T03:30:34.984Z,15.96
2018-05-31T03:33:02.109Z,15.94
2018-05-31T03:35:29.145Z,15.88
2018-05-31T03:37:56.180Z,15.82
2018-05-31T03:40:23.282Z,15.83
2018-05-31T03:42:50.320Z,15.84
2018-05-31T03:45:18.225Z,15.86
2018-05-31T03:47:45.235Z,15.89
2018-05-31T03:50:12.408Z,15.90
2018-05-31T03:52:39.532Z,15.90
2018-05-31T03:55:06.555Z,15.93
2018-05-31T03:57:33.559Z,15.96
2018-05-31T04:00:00.718Z,16.05
2018-05-31T04:02:27.703Z,16.14
2018-05-31T04:04:54.709Z,16.22
2018-05-31T04:07:21.741Z,16.27
2018-05-31T04:09:48.740Z,16.30
2018-05-31T04:12:15.848Z,16.34
2018-05-31T04:14:42.910Z,16.44
2018-05-31T04:17:10.147Z,16.52
2018-05-31T04:19:37.197Z,16.65
2018-05-31T04:22:04.228Z,16.76
2018-05-31T04:24:31.264Z,16.86
2018-05-31T04:26:58.264Z,16.97
2018-05-31T04:29:25.270Z,17.02
2018-05-31T04:31:52.301Z,17.05
2018-05-31T04:34:19.358Z,17.12
2018-05-31T04:36:46.361Z,17.06
2018-05-31T04:39:13.394Z,17.15
2018-05-31T04:41:40.397Z,17.29
2018-05-31T04:44:07.615Z,17.40
2018-05-31T04:46:34.625Z,17.53
2018-05-31T04:49:01.628Z,17.61
2018-05-31T04:51:28.624Z,17.67
2018-05-31T04:53:55.683Z,17.76
2018-05-31T04:56:22.892Z,17.86
2018-05-31T04:58:49.928Z,17.97
2018-05-31T05:01:17.676Z,18.12
2018-05-31T05:03:44.804Z,18.23
2018-05-31T05:06:11.838Z,18.36
2018-05-31T05:08:38.963Z,18.48
2018-05-31T05:11:06.010Z,18.65
2018-05-31T05:13:33.015Z,18.84
2018-05-31T05:16:00.038Z,19.11
2018-05-31T05:18:27.058Z,19.51
2018-05-31T05:20:54.086Z,19.86
2018-05-31T05:23:21.080Z,20.32
2018-05-31T05:25:48.441Z,20.81
2018-05-31T05:28:15.493Z,21.43
2018-05-31T05:30:42.698Z,22.12
2018-05-31T05:33:09.775Z,22.72
2018-05-31T05:35:36.735Z,23.20
2018-05-31T05:38:03.758Z,23.57
2018-05-31T05:40:30.888Z,24.00
2018-05-31T05:42:58.105Z,24.30
2018-05-31T05:45:25.174Z,24.53
2018-05-31T05:47:52.194Z,24.91
2018-05-31T05:50:19.201Z,25.21
2018-05-31T05:52:46.238Z,25.30
2018-05-31T05:55:13.243Z,25.51
2018-05-31T05:57:40.259Z,26.07
2018-05-31T06:00:07.311Z,26.27
2018-05-31T06:02:34.331Z,26.64
2018-05-31T06:05:01.384Z,26.65
2018-05-31T06:07:28.404Z,26.78
2018-05-31T06:09:55.445Z,27.22
2018-05-31T06:12:22.625Z,27.54
2018-05-31T06:14:49.651Z,28.10
2018-05-31T06:17:16.679Z,28.66
2018-05-31T06:19:43.692Z,29.13
2018-05-31T06:22:10.690Z,29.04
2018-05-31T06:24:37.759Z,28.69
2018-05-31T06:27:04.726Z,28.76
2018-05-31T06:29:31.767Z,28.72
2018-05-31T06:31:58.773Z,29.18
2018-05-31T06:34:25.950Z,28.83
2018-05-31T06:36:53.285Z,28.93
2018-05-31T06:39:20.330Z,29.03
2018-05-31T06:41:47.380Z,28.60
2018-05-31T06:44:14.358Z,29.45
2018-05-31T06:46:41.371Z,29.40
2018-05-31T06:49:08.834Z,30.44
2018-05-31T06:51:36.310Z,30.27
2018-05-31T06:54:03.335Z,30.53
2018-05-31T06:56:30.356Z,31.62
2018-05-31T06:58:57.336Z,31.57
2018-05-31T07:01:24.371Z,31.26
2018-05-31T07:03:51.384Z,30.77
2018-05-31T07:06:18.991Z,32.10
2018-05-31T07:08:46.044Z,33.05
2018-05-31T07:11:13.115Z,33.23
2018-05-31T07:13:40.362Z,34.71
2018-05-31T07:16:07.351Z,35.23
2018-05-31T07:18:34.490Z,35.48
2018-05-31T07:21:01.500Z,36.06
2018-05-31T07:23:28.527Z,36.04
2018-05-31T07:25:56.085Z,37.01
2018-05-31T07:28:23.083Z,36.93
2018-05-31T07:30:50.176Z,37.74
2018-05-31T07:33:17.212Z,38.08
2018-05-31T07:35:44.221Z,37.56
2018-05-31T07:38:11.226Z,36.59
2018-05-31T07:40:38.241Z,36.09
2018-05-31T07:43:05.310Z,35.49
2018-05-31T07:45:32.336Z,36.97
2018-05-31T07:47:59.491Z,37.43
2018-05-31T07:50:26.571Z,38.56
2018-05-31T07:52:54.131Z,39.42
2018-05-31T07:55:22.107Z,39.07
2018-05-31T07:57:49.600Z,39.11
2018-05-31T08:00:18.866Z,39.65
2018-05-31T08:02:47.923Z,38.98
2018-05-31T08:05:15.406Z,39.27
2018-05-31T08:07:42.945Z,39.18
2018-05-31T08:10:10.917Z,40.01
2018-05-31T08:12:41.588Z,39.74
2018-05-31T08:15:09.461Z,40.43
2018-05-31T08:17:37.685Z,39.93
2018-05-31T08:20:05.338Z,41.13
2018-05-31T08:22:32.422Z,42.20
2018-05-31T08:24:59.425Z,41.94
2018-05-31T08:27:26.426Z,42.07
2018-05-31T08:29:53.543Z,43.11
2018-05-31T08:32:20.702Z,42.18
2018-05-31T08:34:47.717Z,41.83
2018-05-31T08:37:15.286Z,42.34
2018-05-31T08:39:42.757Z,42.23
2018-05-31T08:42:10.233Z,41.78
2018-05-31T08:44:38.442Z,42.09
2018-05-31T08:47:05.907Z,42.78
2018-05-31T08:49:33.502Z,44.37
2018-05-31T08:52:01.127Z,45.22
2018-05-31T08:54:28.626Z,46.06
2018-05-31T08:56:56.176Z,45.92
2018-05-31T08:59:23.861Z,45.86
2018-05-31T09:01:51.322Z,45.67
2018-05-31T09:04:18.805Z,46.61
2018-05-31T09:06:46.293Z,45.65
2018-05-31T09:09:13.771Z,45.43
2018-05-31T09:11:41.242Z,45.67
2018-05-31T09:14:08.708Z,46.02
2018-05-31T09:16:36.163Z,46.02
2018-05-31T09:19:03.668Z,46.66
2018-05-31T09:21:31.369Z,47.01
2018-05-31T09:23:58.839Z,47.86
2018-05-31T09:26:26.387Z,48.30
2018-05-31T09:28:53.886Z,48.88
2018-05-31T09:31:21.377Z,46.78
2018-05-31T09:33:48.941Z,47.74
2018-05-31T09:36:16.607Z,48.08
2018-05-31T09:38:44.169Z,46.86
2018-05-31T09:41:11.657Z,47.31
2018-05-31T09:43:40.567Z,47.91
2018-05-31T09:46:08.139Z,47.79
2018-05-31T09:48:35.611Z,49.37
2018-05-31T09:51:05.589Z,49.12
2018-05-31T09:53:33.370Z,48.69
2018-05-31T09:56:00.839Z,49.03
2018-05-31T09:58:28.551Z,49.56
2018-05-31T10:00:56.021Z,49.86
2018-05-31T10:03:23.517Z,48.75
2018-05-31T10:05:51.078Z,50.42
2018-05-31T10:08:18.573Z,49.95
2018-05-31T10:10:46.311Z,49.82
2018-05-31T10:13:14.631Z,51.40
2018-05-31T10:15:42.109Z,51.29
2018-05-31T10:18:09.581Z,51.12
2018-05-31T10:20:37.336Z,51.15
2018-05-31T10:23:04.896Z,50.67
2018-05-31T10:25:32.362Z,50.37
2018-05-31T10:27:59.858Z,51.03
2018-05-31T10:30:27.547Z,50.92
2018-05-31T10:32:55.148Z,51.73
2018-05-31T10:35:22.595Z,50.64
2018-05-31T10:37:50.148Z,48.90
2018-05-31T10:40:17.813Z,49.82
2018-05-31T10:42:45.250Z,50.62
2018-05-31T10:45:12.757Z,50.48
2018-05-31T10:47:40.228Z,49.11
2018-05-31T10:50:07.704Z,47.54
2018-05-31T10:52:35.202Z,46.99
2018-05-31T10:55:03.273Z,45.59
2018-05-31T10:57:30.772Z,44.28
2018-05-31T10:59:58.240Z,43.21
2018-05-31T11:02:25.767Z,41.80
2018-05-31T11:04:53.432Z,40.04
2018-05-31T11:07:21.003Z,38.57
2018-05-31T11:09:48.482Z,37.75
2018-05-31T11:12:15.953Z,37.49
2018-05-31T11:14:43.508Z,37.93
2018-05-31T11:17:10.968Z,37.71
2018-05-31T11:19:38.433Z,36.71
2018-05-31T11:22:06.082Z,36.37
2018-05-31T11:24:33.564Z,36.11
2018-05-31T11:27:01.013Z,35.04
2018-05-31T11:29:28.591Z,35.32
2018-05-31T11:31:56.052Z,35.52
2018-05-31T11:34:23.646Z,35.05
2018-05-31T11:36:51.083Z,35.22
2018-05-31T11:39:18.567Z,33.98
2018-05-31T11:41:46.038Z,33.38
2018-05-31T11:44:13.509Z,34.26
2018-05-31T11:46:40.959Z,34.47
2018-05-31T11:49:08.463Z,34.73
2018-05-31T11:51:35.928Z,34.08
2018-05-31T11:54:03.566Z,33.99
2018-05-31T11:56:31.012Z,34.36
2018-05-31T11:58:58.537Z,33.81
2018-05-31T12:01:26.029Z,33.84
2018-05-31T12:03:53.535Z,34.22
2018-05-31T12:06:21.002Z,34.36
2018-05-31T12:08:48.482Z,34.79
2018-05-31T12:11:16.044Z,34.52
2018-05-31T12:13:43.496Z,34.97
2018-05-31T12:16:11.119Z,35.07
2018-05-31T12:18:38.605Z,35.20
2018-05-31T12:21:06.087Z,35.33
2018-05-31T12:23:34.609Z,35.30
2018-05-31T12:26:02.145Z,35.23
2018-05-31T12:28:30.122Z,35.26
2018-05-31T12:30:57.617Z,35.49
2018-05-31T12:33:25.109Z,35.40
2018-05-31T12:35:52.581Z,34.83
2018-05-31T12:38:20.173Z,34.93
2018-05-31T12:40:47.664Z,34.48
2018-05-31T12:43:15.352Z,34.28
2018-05-31T12:45:42.803Z,34.85
2018-05-31T12:48:10.441Z,35.18
2018-05-31T12:50:37.930Z,35.29
2018-05-31T12:53:05.524Z,34.59
2018-05-31T12:55:32.988Z,35.03
2018-05-31T12:58:00.522Z,34.79
2018-05-31T13:00:27.984Z,34.89
2018-05-31T13:02:55.444Z,34.90
2018-05-31T13:05:22.944Z,34.65
2018-05-31T13:07:50.398Z,34.36
2018-05-31T13:10:17.868Z,33.36
2018-05-31T13:12:46.057Z,33.25
2018-05-31T13:15:13.519Z,33.07
2018-05-31T13:17:40.973Z,33.08
2018-05-31T13:20:08.444Z,33.02
2018-05-31T13:22:36.164Z,32.92
2018-05-31T13:25:03.708Z,33.12
2018-05-31T13:27:31.243Z,32.93
2018-05-31T13:29:58.721Z,32.35
2018-05-31T13:32:26.178Z,32.50
2018-05-31T13:34:53.659Z,32.42
2018-05-31T13:37:21.152Z,32.20
2018-05-31T13:39:48.721Z,32.43
2018-05-31T13:42:16.259Z,32.25
2018-05-31T13:44:43.706Z,31.95
2018-05-31T13:47:11.183Z,31.20
2018-05-31T13:49:38.684Z,30.96
2018-05-31T13:52:06.159Z,30.65
2018-05-31T13:54:33.622Z,30.30
2018-05-31T13:57:01.090Z,29.94
2018-05-31T13:59:28.566Z,29.78
2018-05-31T14:01:56.102Z,29.55
2018-05-31T14:04:23.398Z,29.16
2018-05-31T14:06:50.910Z,29.04
2018-05-31T14:09:18.042Z,29.02
2018-05-31T14:11:45.060Z,28.99
2018-05-31T14:14:12.104Z,29.02
2018-05-31T14:16:39.119Z,28.92
2018-05-31T14:19:06.121Z,28.53
2018-05-31T14:21:33.225Z,28.27
2018-05-31T14:24:00.245Z,28.08
2018-05-31T14:26:27.248Z,27.88
2018-05-31T14:28:54.244Z,27.79
2018-05-31T14:31:21.753Z,27.79
2018-05-31T14:33:48.768Z,27.85
2018-05-31T14:36:15.773Z,28.04
2018-05-31T14:38:42.830Z,28.24
2018-05-31T14:41:09.848Z,28.15
2018-05-31T14:43:36.854Z,28.05
2018-05-31T14:46:03.956Z,28.11
2018-05-31T14:48:30.958Z,28.17
2018-05-31T14:50:58.658Z,28.06
2018-05-31T14:53:25.714Z,28.05
2018-05-31T14:55:53.182Z,28.28
2018-05-31T14:58:20.673Z,28.38
2018-05-31T15:00:48.147Z,28.45
2018-05-31T15:03:15.751Z,28.61
2018-05-31T15:05:43.206Z,28.77
2018-05-31T15:08:10.745Z,28.75
2018-05-31T15:10:38.438Z,28.57
2018-05-31T15:13:05.925Z,28.75
2018-05-31T15:15:33.563Z,28.86
2018-05-31T15:18:01.039Z,28.67
2018-05-31T15:20:28.665Z,28.29
2018-05-31T15:22:56.203Z,28.20
2018-05-31T15:25:24.144Z,28.22
2018-05-31T15:27:51.617Z,28.29
2018-05-31T15:30:19.221Z,28.51
2018-05-31T15:32:46.716Z,28.66
2018-05-31T15:35:14.192Z,28.93
2018-05-31T15:37:41.699Z,29.09
2018-05-31T15:40:10.116Z,29.21
2018-05-31T15:42:37.729Z,29.60
2018-05-31T15:45:05.389Z,30.08
2018-05-31T15:47:32.940Z,30.33
2018-05-31T15:50:00.403Z,30.49
2018-05-31T15:52:27.874Z,30.31
2018-05-31T15:54:55.330Z,30.01
2018-05-31T15:57:22.840Z,29.80
2018-05-31T15:59:50.294Z,29.44
2018-05-31T16:02:17.751Z,29.26
2018-05-31T16:04:45.435Z,29.11
2018-05-31T16:07:12.929Z,28.86
2018-05-31T16:09:40.385Z,28.62
2018-05-31T16:12:07.843Z,28.23
2018-05-31T16:14:35.421Z,28.04
2018-05-31T16:17:02.893Z,27.98
2018-05-31T16:19:30.385Z,27.89
2018-05-31T16:21:57.865Z,27.68
2018-05-31T16:24:25.344Z,27.75
2018-05-31T16:26:52.817Z,27.80
2018-05-31T16:29:20.394Z,27.81
2018-05-31T16:31:47.866Z,27.81
2018-05-31T16:34:15.448Z,27.91
2018-05-31T16:36:43.075Z,27.94
2018-05-31T16:39:10.555Z,27.95
2018-05-31T16:41:38.019Z,28.03
2018-05-31T16:44:05.504Z,27.94
2018-05-31T16:46:32.984Z,27.91
2018-05-31T16:49:00.610Z,27.91
2018-05-31T16:51:28.059Z,27.83
2018-05-31T16:53:55.533Z,27.78
2018-05-31T16:56:23.026Z,27.65
2018-05-31T16:58:50.708Z,27.48
2018-05-31T17:01:18.169Z,27.28
2018-05-31T17:03:45.685Z,27.17
2018-05-31T17:06:13.169Z,27.07
2018-05-31T17:08:40.630Z,26.90
2018-05-31T17:11:08.094Z,26.90
2018-05-31T17:13:35.603Z,26.80
2018-05-31T17:16:04.295Z,26.71
2018-05-31T17:18:31.811Z,26.55
2018-05-31T17:20:59.896Z,26.40
2018-05-31T17:23:27.418Z,26.22
2018-05-31T17:25:54.950Z,26.12
2018-05-31T17:28:22.664Z,26.05
2018-05-31T17:30:50.205Z,25.91
2018-05-31T17:33:17.760Z,25.80
2018-05-31T17:35:45.220Z,25.69
2018-05-31T17:38:12.869Z,25.59
2018-05-31T17:40:40.511Z,25.48
2018-05-31T17:43:07.990Z,25.42
2018-05-31T17:45:35.606Z,25.29
2018-05-31T17:48:03.165Z,25.12
2018-05-31T17:50:30.655Z,25.05
2018-05-31T17:52:58.285Z,24.92
2018-05-31T17:55:25.758Z,24.79
2018-05-31T17:57:53.398Z,24.66
2018-05-31T18:13:58.791Z,24.06
2018-05-31T18:16:26.258Z,24.03
2018-05-31T18:18:53.841Z,24.01
2018-05-31T18:21:21.304Z,23.93
2018-05-31T18:23:48.779Z,23.87
2018-05-31T18:26:16.252Z,23.83
2018-05-31T18:28:43.710Z,23.80
2018-05-31T18:31:11.196Z,23.73
2018-05-31T18:33:38.704Z,23.61
2018-05-31T18:36:06.135Z,23.49
2018-05-31T18:38:33.590Z,23.44
2018-05-31T18:41:01.078Z,23.44
2018-05-31T18:43:28.875Z,23.44
2018-05-31T18:45:56.367Z,23.46
2018-05-31T18:48:24.225Z,23.45
2018-05-31T18:50:51.800Z,23.28
2018-05-31T18:53:18.866Z,23.12
2018-05-31T18:55:45.901Z,22.98
2018-05-31T18:58:12.951Z,22.96
2018-05-31T19:00:40.144Z,22.93
2018-05-31T19:03:07.827Z,22.93
2018-05-31T19:05:34.831Z,22.88
2018-05-31T19:08:01.969Z,22.88
2018-05-31T19:10:29.001Z,22.89
2018-05-31T19:13:01.697Z,22.85
2018-05-31T19:15:35.644Z,22.74
2018-05-31T19:18:02.687Z,22.66
2018-05-31T19:20:29.717Z,22.58
2018-05-31T19:22:56.727Z,22.52
2018-05-31T19:25:23.732Z,22.44
2018-05-31T19:27:50.800Z,22.36
2018-05-31T19:30:24.441Z,22.32
2018-05-31T19:32:51.466Z,22.24
2018-05-31T19:35:24.259Z,22.18
2018-05-31T19:37:51.286Z,22.14
2018-05-31T19:40:18.336Z,22.11
2018-05-31T19:42:51.037Z,22.07
2018-05-31T19:45:18.032Z,22.10
2018-05-31T19:47:45.490Z,22.15
2018-05-31T19:50:12.543Z,22.16
2018-05-31T19:52:45.660Z,22.18
2018-05-31T19:55:13.129Z,22.16
2018-05-31T19:57:46.527Z,22.13
2018-05-31T20:00:19.795Z,22.08
2018-05-31T20:05:51.625Z,21.93
2018-05-31T20:08:18.655Z,21.88
2018-05-31T20:10:46.250Z,21.90
2018-05-31T20:13:13.863Z,21.91
2018-05-31T20:15:41.536Z,21.94
2018-05-31T20:18:09.025Z,21.97
2018-05-31T20:20:36.510Z,21.97
2018-05-31T20:23:03.972Z,21.97
2018-05-31T20:25:31.580Z,21.96
2018-05-31T20:27:59.060Z,21.88
2018-05-31T20:30:26.207Z,21.87
2018-05-31T20:32:53.245Z,21.85
2018-05-31T20:35:20.295Z,21.85
2018-05-31T20:37:47.348Z,21.82
2018-05-31T20:40:14.345Z,21.80
2018-05-31T20:42:41.877Z,21.71
2018-05-31T20:45:09.582Z,21.68
2018-05-31T20:47:36.775Z,21.66
2018-05-31T20:50:04.260Z,21.67
2018-05-31T20:52:31.751Z,21.70
2018-05-31T20:54:59.216Z,21.72
2018-05-31T20:57:26.680Z,21.71
2018-05-31T20:59:54.178Z,21.68
2018-05-31T21:02:21.638Z,21.62
2018-05-31T21:04:49.101Z,21.52
2018-05-31T21:07:16.894Z,21.45
2018-05-31T21:09:44.410Z,21.34
2018-05-31T21:12:11.403Z,21.22
2018-05-31T21:14:38.432Z,21.14
2018-05-31T21:17:05.976Z,21.15
2018-05-31T21:19:32.978Z,21.11
2018-05-31T21:22:00.036Z,21.10
2018-05-31T21:24:27.020Z,21.07
2018-05-31T21:26:54.063Z,21.06
2018-05-31T21:29:21.099Z,21.06
2018-05-31T21:31:48.118Z,21.02
2018-05-31T21:34:15.180Z,20.91
2018-05-31T21:36:42.236Z,20.80
2018-05-31T21:39:09.307Z,20.77
2018-05-31T21:41:36.374Z,20.78
2018-05-31T21:44:03.400Z,20.87
2018-05-31T21:46:30.440Z,20.98
2018-05-31T21:48:57.426Z,20.89
2018-05-31T21:51:24.422Z,20.39
2018-05-31T21:53:51.410Z,19.71
2018-05-31T21:56:18.758Z,19.23
2018-05-31T21:58:45.755Z,18.79
2018-05-31T22:01:12.792Z,18.82
2018-05-31T22:03:39.830Z,18.66
2018-05-31T22:06:06.851Z,18.67
2018-05-31T22:08:33.866Z,18.45
2018-05-31T22:11:01.095Z,18.19
2018-05-31T22:13:28.191Z,17.94
2018-05-31T22:15:55.219Z,16.90
2018-05-31T22:18:22.269Z,16.40
2018-05-31T22:20:49.291Z,16.33
2018-05-31T22:23:16.495Z,16.34
2018-05-31T22:25:43.793Z,16.14
2018-05-31T22:28:10.831Z,16.09
2018-05-31T22:30:37.895Z,15.94
2018-05-31T22:33:04.891Z,15.87
2018-05-31T22:35:31.963Z,15.83
2018-05-31T22:37:59.159Z,15.82
2018-05-31T22:40:26.191Z,15.93
2018-05-31T22:42:53.213Z,15.89
2018-05-31T22:45:20.242Z,15.80
2018-05-31T22:47:47.430Z,15.71
2018-05-31T22:50:14.441Z,15.66
2018-05-31T22:52:41.482Z,15.54
2018-05-31T22:55:08.764Z,15.40
2018-05-31T22:57:35.796Z,15.41
2018-05-31T23:00:02.809Z,15.58
2018-05-31T23:02:29.885Z,15.66
2018-05-31T23:04:56.910Z,15.71
2018-05-31T23:07:24.126Z,15.75
2018-05-31T23:09:51.573Z,15.72
2018-05-31T23:12:18.639Z,15.67
2018-05-31T23:14:45.670Z,15.71
2018-05-31T23:17:12.687Z,15.70
2018-05-31T23:19:39.696Z,15.67
2018-05-31T23:22:06.695Z,15.73
2018-05-31T23:24:33.948Z,15.73
2018-05-31T23:27:00.980Z,15.68
2018-05-31T23:29:27.975Z,15.80
2018-05-31T23:31:54.973Z,15.86
2018-05-31T23:34:21.977Z,15.86
2018-05-31T23:36:48.998Z,15.97
2018-05-31T23:39:15.983Z,16.03
2018-05-31T23:41:43.042Z,16.00
2018-05-31T23:44:10.171Z,15.98
2018-05-31T23:46:37.172Z,15.85
2018-05-31T23:49:04.210Z,15.83
2018-05-31T23:51:31.254Z,15.86
2018-05-31T23:53:58.258Z,15.76
2018-05-31T23:56:25.360Z,15.70
2018-05-31T23:58:52.360Z,15.75
